createdAt,value
2022-08-05T00:00:05.126Z,0
2022-08-05T00:03:06.988Z,0
2022-08-05T00:06:22.319Z,0
2022-08-05T00:09:03.911Z,0
2022-08-05T00:12:05.637Z,0.15
2022-08-05T00:15:14.152Z,0.1
2022-08-05T00:18:03.898Z,0
2022-08-05T00:21:08.523Z,0
2022-08-05T00:24:10.853Z,0
2022-08-05T00:27:10.205Z,0
2022-08-05T00:30:04.386Z,0
2022-08-05T00:33:03.934Z,0.35
2022-08-05T00:36:15.334Z,0.5
2022-08-05T00:39:03.974Z,0.45
2022-08-05T00:42:03.906Z,0.4
2022-08-05T00:45:03.930Z,1.35
2022-08-05T00:48:07.135Z,0.95
2022-08-05T00:51:50.061Z,0.95
2022-08-05T00:54:04.173Z,0.55
2022-08-05T00:57:03.935Z,1.1
2022-08-05T01:00:04.021Z,1.1
2022-08-05T01:03:08.573Z,0.7
2022-08-05T01:06:06.297Z,0.3
2022-08-05T01:09:04.738Z,0.3
2022-08-05T01:12:09.440Z,0.5
2022-08-05T01:15:05.946Z,0.5
2022-08-05T01:18:03.946Z,0.4
2022-08-05T01:21:03.951Z,0.45
2022-08-05T01:24:13.195Z,0.1
2022-08-05T01:27:12.227Z,0
2022-08-05T01:30:04.563Z,0
2022-08-05T01:33:03.970Z,0
2022-08-05T01:36:05.456Z,0
2022-08-05T01:39:04.119Z,0
2022-08-05T01:42:04.017Z,0.1
2022-08-05T01:45:04.286Z,0.2
2022-08-05T01:48:10.348Z,0
2022-08-05T01:51:11.896Z,0
2022-08-05T01:54:04.686Z,0
2022-08-05T01:58:08.428Z,0
2022-08-05T02:00:03.979Z,0.25
2022-08-05T02:03:04.520Z,0.1
2022-08-05T02:06:24.171Z,0.3
2022-08-05T02:09:03.975Z,0.05
2022-08-05T02:12:03.989Z,0.3
2022-08-05T02:15:04.210Z,0.25
2022-08-05T02:18:29.087Z,0
2022-08-05T02:21:03.992Z,0
2022-08-05T02:24:05.735Z,0.45
2022-08-05T02:27:09.160Z,0.35
2022-08-05T02:30:04.859Z,0.4
2022-08-05T02:33:04.031Z,0.45
2022-08-05T02:36:04.755Z,0.5
2022-08-05T02:39:04.150Z,0.55
2022-08-05T02:42:04.082Z,0.4
2022-08-05T02:45:04.350Z,0.15
2022-08-05T02:48:12.241Z,0.2
2022-08-05T02:51:04.089Z,0.4
2022-08-05T02:54:05.113Z,0.4
2022-08-05T02:57:10.011Z,0.75
2022-08-05T03:00:04.062Z,0.8
2022-08-05T03:03:10.435Z,2.35
2022-08-05T03:06:53.488Z,1.2
2022-08-05T03:09:04.883Z,1.95
2022-08-05T03:12:04.046Z,1.45
2022-08-05T03:15:07.601Z,1.3
2022-08-05T03:18:04.172Z,1.5
2022-08-05T03:21:04.180Z,1.6
2022-08-05T03:24:04.246Z,1.85
2022-08-05T03:27:07.525Z,1.6
2022-08-05T03:30:09.133Z,1.75
2022-08-05T03:33:04.231Z,1.85
2022-08-05T03:36:07.550Z,1.3
2022-08-05T03:39:04.245Z,1.05
2022-08-05T03:42:05.485Z,1.25
2022-08-05T03:45:22.276Z,1.15
2022-08-05T03:48:04.992Z,1.1
2022-08-05T03:52:35.544Z,0.5
2022-08-05T03:55:00.606Z,1
2022-08-05T03:57:16.167Z,1
2022-08-05T04:00:04.109Z,1.25
2022-08-05T04:03:05.210Z,0.6
2022-08-05T04:06:04.133Z,0.6
2022-08-05T04:09:04.796Z,0.8
2022-08-05T04:12:23.795Z,0.8
2022-08-05T04:15:04.672Z,1.25
2022-08-05T04:18:07.143Z,1.6
2022-08-05T04:21:04.875Z,1
2022-08-05T04:24:09.008Z,1.05
2022-08-05T04:27:04.111Z,1.1
2022-08-05T04:30:04.807Z,1.15
2022-08-05T04:33:04.102Z,1
2022-08-05T04:36:10.797Z,1.65
2022-08-05T04:39:04.302Z,1.35
2022-08-05T04:42:04.681Z,1.2
2022-08-05T04:45:04.146Z,1.15
2022-08-05T04:48:05.007Z,1.45
2022-08-05T04:51:10.112Z,0.65
2022-08-05T04:54:04.169Z,1.05
2022-08-05T04:57:04.214Z,0.8
2022-08-05T05:00:04.135Z,1.45
2022-08-05T05:03:04.928Z,0.7
2022-08-05T05:06:36.401Z,0.8
2022-08-05T05:09:06.549Z,0.35
2022-08-05T05:12:04.216Z,0.25
2022-08-05T05:15:04.770Z,0.8
2022-08-05T05:18:04.310Z,1.2
2022-08-05T05:21:05.500Z,0.7
2022-08-05T05:24:09.379Z,0.6
2022-08-05T05:27:04.837Z,0.9
2022-08-05T05:30:06.160Z,0.55
2022-08-05T05:33:16.366Z,0.9
2022-08-05T05:36:04.241Z,1.55
2022-08-05T05:39:05.164Z,1.75
2022-08-05T05:42:04.197Z,1.2
2022-08-05T05:45:04.192Z,1.55
2022-08-05T05:48:08.009Z,1.75
2022-08-05T05:51:15.379Z,1.55
2022-08-05T05:54:04.256Z,1.9
2022-08-05T05:57:13.632Z,1.4
2022-08-05T06:00:05.166Z,1.75
2022-08-05T06:03:28.436Z,2.2
2022-08-05T06:06:04.750Z,2.1
2022-08-05T06:09:05.000Z,2.5
2022-08-05T06:12:04.241Z,2.15
2022-08-05T06:15:04.261Z,2.9
2022-08-05T06:18:04.228Z,2.8
2022-08-05T06:21:16.534Z,2.2
2022-08-05T06:24:04.239Z,2.2
2022-08-05T06:27:05.094Z,1.8
2022-08-05T06:30:16.758Z,1.65
2022-08-05T06:33:04.901Z,1.75
2022-08-05T06:36:09.985Z,1.95
2022-08-05T06:39:04.342Z,1.8
2022-08-05T06:42:05.050Z,1.9
2022-08-05T06:45:09.573Z,1.5
2022-08-05T06:48:12.080Z,1.85
2022-08-05T06:51:09.285Z,2.3
2022-08-05T06:54:04.308Z,1.75
2022-08-05T06:57:14.046Z,1.75
2022-08-05T07:00:05.766Z,2.2
2022-08-05T07:03:09.714Z,1.9
2022-08-05T07:06:13.762Z,1.85
2022-08-05T07:09:05.356Z,1.85
2022-08-05T07:12:04.277Z,2.25
2022-08-05T07:15:04.398Z,1.3
2022-08-05T07:18:10.856Z,1.8
2022-08-05T07:21:06.409Z,1.65
2022-08-05T07:24:11.358Z,1.55
2022-08-05T07:27:09.292Z,2.3
2022-08-05T07:30:22.546Z,1.7
2022-08-05T07:33:09.662Z,1.75
2022-08-05T07:36:20.425Z,1.7
2022-08-05T07:39:06.582Z,1.25
2022-08-05T07:42:13.663Z,1.75
2022-08-05T07:45:09.502Z,1.75
2022-08-05T07:48:04.316Z,1.45
2022-08-05T07:51:23.277Z,2.2
2022-08-05T07:54:04.314Z,1.95
2022-08-05T07:57:15.047Z,1.7
2022-08-05T08:00:04.391Z,2.15
2022-08-05T08:03:14.387Z,2.65
2022-08-05T08:06:04.307Z,3.05
2022-08-05T08:09:06.486Z,3.05
2022-08-05T08:12:17.128Z,1.95
2022-08-05T08:15:05.510Z,2.1
2022-08-05T08:18:09.940Z,2.25
2022-08-05T08:21:09.951Z,2.3
2022-08-05T08:24:08.532Z,3.45
2022-08-05T08:27:08.077Z,2.25
2022-08-05T08:30:18.384Z,2.15
2022-08-05T08:33:09.227Z,2.25
2022-08-05T08:39:05.102Z,2.8
2022-08-05T08:42:11.076Z,2.4
2022-08-05T08:45:17.459Z,2.75
2022-08-05T08:48:12.982Z,2.65
2022-08-05T08:51:23.354Z,4.3
2022-08-05T08:54:04.376Z,3
2022-08-05T08:57:04.385Z,3.3
2022-08-05T09:00:05.312Z,3.75
2022-08-05T09:03:04.425Z,3.4
2022-08-05T09:06:10.952Z,2.4
2022-08-05T09:09:04.492Z,2.5
2022-08-05T09:12:20.379Z,3.5
2022-08-05T09:15:07.391Z,2.9
2022-08-05T09:18:04.423Z,2.75
2022-08-05T09:21:11.588Z,2.95
2022-08-05T09:24:07.606Z,2.95
2022-08-05T09:27:04.851Z,2.8
2022-08-05T09:30:07.563Z,2.75
2022-08-05T09:33:05.593Z,3.7
2022-08-05T09:36:11.536Z,2.6
2022-08-05T09:39:16.358Z,1.85
2022-08-05T09:42:04.486Z,1.55
2022-08-05T09:45:18.024Z,2.75
2022-08-05T09:48:04.411Z,2.15
2022-08-05T09:51:14.723Z,2.7
2022-08-05T09:54:05.757Z,1.6
2022-08-05T09:57:20.760Z,2.55
2022-08-05T10:00:08.623Z,3.2
2022-08-05T10:03:06.244Z,1.85
2022-08-05T10:06:14.640Z,3
2022-08-05T10:09:04.460Z,1.9
2022-08-05T10:12:18.396Z,2.55
2022-08-05T10:15:04.497Z,2.8
2022-08-05T10:18:04.489Z,2.65
2022-08-05T10:21:11.700Z,2.05
2022-08-05T10:24:10.632Z,1.85
2022-08-05T10:27:08.463Z,1.5
2022-08-05T10:31:21.252Z,1.8
2022-08-05T10:33:05.090Z,1.95
2022-08-05T10:36:04.498Z,1.45
2022-08-05T10:39:10.581Z,0.9
2022-08-05T10:42:05.366Z,1
2022-08-05T10:45:09.747Z,1.35
2022-08-05T10:48:29.380Z,0.6
2022-08-05T10:51:04.983Z,1.35
2022-08-05T10:54:22.999Z,1.25
2022-08-05T10:57:04.514Z,0.9
2022-08-05T11:00:13.496Z,2.25
2022-08-05T11:03:23.964Z,1.5
2022-08-05T11:06:04.781Z,1.25
2022-08-05T11:09:04.552Z,1.2
2022-08-05T11:12:04.505Z,1.6
2022-08-05T11:15:11.993Z,1.1
2022-08-05T11:18:04.741Z,0.4
2022-08-05T11:21:11.522Z,1.85
2022-08-05T11:24:14.840Z,1.55
2022-08-05T11:27:04.537Z,0.7
2022-08-05T11:30:04.620Z,0.6
2022-08-05T11:33:05.592Z,1.15
2022-08-05T11:36:09.408Z,0.65
2022-08-05T11:39:04.572Z,1.2
2022-08-05T11:42:05.566Z,1.25
2022-08-05T11:45:14.106Z,1
2022-08-05T11:48:04.544Z,0.7
2022-08-05T11:51:04.539Z,0.7
2022-08-05T11:54:04.932Z,2.3
2022-08-05T11:57:24.567Z,2.1
2022-08-05T12:00:04.491Z,1.9
2022-08-05T12:03:04.661Z,1.75
2022-08-05T12:06:10.285Z,1.25
2022-08-05T12:09:05.039Z,1.15
2022-08-05T12:12:04.861Z,0.95
2022-08-05T12:15:04.546Z,0.8
2022-08-05T12:18:10.339Z,1.15
2022-08-05T12:21:04.557Z,2.25
2022-08-05T12:24:07.711Z,0.95
2022-08-05T12:27:21.405Z,1
2022-08-05T12:30:04.591Z,1.7
2022-08-05T12:33:27.116Z,2.6
2022-08-05T12:36:09.231Z,1.3
2022-08-05T12:39:07.900Z,1.6
2022-08-05T12:42:04.658Z,1.5
2022-08-05T12:45:09.831Z,1.55
2022-08-05T12:48:17.812Z,1.15
2022-08-05T12:51:04.921Z,1.8
2022-08-05T12:54:04.725Z,2.35
2022-08-05T12:57:04.768Z,1.85
2022-08-05T13:01:59.130Z,0.95
2022-08-05T13:03:07.616Z,1.35
2022-08-05T13:06:04.606Z,1.6
2022-08-05T13:09:04.580Z,1.15
2022-08-05T13:12:04.641Z,1.7
2022-08-05T13:15:11.176Z,1.45
2022-08-05T13:18:04.608Z,1.55
2022-08-05T13:21:05.009Z,0.75
2022-08-05T13:24:05.312Z,0.65
2022-08-05T13:27:04.623Z,0.9
2022-08-05T13:30:35.521Z,1.95
2022-08-05T13:33:04.706Z,0.9
2022-08-05T13:36:06.207Z,1.5
2022-08-05T13:39:24.847Z,1.7
2022-08-05T13:42:04.604Z,1.15
2022-08-05T13:45:07.147Z,1.6
2022-08-05T13:48:56.851Z,1.55
2022-08-05T13:51:04.577Z,1.55
2022-08-05T13:54:11.657Z,1.3
2022-08-05T13:57:07.137Z,1.4
2022-08-05T14:00:05.361Z,1.3
2022-08-05T14:03:05.175Z,1.9
2022-08-05T14:06:24.858Z,2.25
2022-08-05T14:09:09.587Z,1.7
2022-08-05T14:12:17.912Z,1.75
2022-08-05T14:16:04.153Z,1.65
2022-08-05T14:18:04.789Z,1.05
2022-08-05T14:21:24.096Z,1.1
2022-08-05T14:24:05.428Z,1.35
2022-08-05T14:27:17.892Z,1
2022-08-05T14:30:05.212Z,1.45
2022-08-05T14:33:05.930Z,1.6
2022-08-05T14:36:04.691Z,1.85
2022-08-05T14:39:04.837Z,1.55
2022-08-05T14:42:19.817Z,1.35
2022-08-05T14:45:04.674Z,1.25
2022-08-05T14:48:08.635Z,0.95
2022-08-05T14:51:04.663Z,1.65
2022-08-05T14:54:27.304Z,1.45
2022-08-05T14:57:13.457Z,1.35
2022-08-05T15:00:04.666Z,1.95
2022-08-05T15:03:05.202Z,0.7
2022-08-05T15:06:13.314Z,0.45
2022-08-05T15:09:04.914Z,0.4
2022-08-05T15:12:05.012Z,0.85
2022-08-05T15:15:15.240Z,0.45
2022-08-05T15:18:06.823Z,1.45
2022-08-05T15:21:08.494Z,1.65
2022-08-05T15:24:04.687Z,1.15
2022-08-05T15:27:09.711Z,1.35
2022-08-05T15:30:04.730Z,2.05
2022-08-05T15:33:04.747Z,1.75
2022-08-05T15:36:04.948Z,1.1
2022-08-05T15:40:42.060Z,1.3
2022-08-05T15:42:49.850Z,1.15
2022-08-05T15:45:07.026Z,0.75
2022-08-05T15:48:04.803Z,1.25
2022-08-05T15:51:06.706Z,1.5
2022-08-05T15:54:09.324Z,1.3
2022-08-05T15:57:08.256Z,1.8
2022-08-05T16:00:04.738Z,2.4
2022-08-05T16:03:06.226Z,1.85
2022-08-05T16:06:05.561Z,1.95
2022-08-05T16:09:04.732Z,2.8
2022-08-05T16:12:05.442Z,1.7
2022-08-05T16:15:04.792Z,2.4
2022-08-05T16:18:09.697Z,2.15
2022-08-05T16:21:05.641Z,3
2022-08-05T16:24:04.745Z,2.5
2022-08-05T16:27:08.157Z,1.65
2022-08-05T16:30:04.791Z,2.35
2022-08-05T16:33:04.752Z,1.7
2022-08-05T16:36:04.890Z,2.25
2022-08-05T16:39:05.664Z,1.85
2022-08-05T16:42:13.236Z,3
2022-08-05T16:46:03.109Z,3.35
2022-08-05T16:48:04.816Z,2.4
2022-08-05T16:51:10.712Z,2.45
2022-08-05T16:54:16.231Z,4.95
2022-08-05T16:57:14.917Z,2.95
2022-08-05T17:00:10.572Z,3.3
2022-08-05T17:03:15.511Z,2.95
2022-08-05T17:06:05.179Z,3.45
2022-08-05T17:09:04.778Z,4
2022-08-05T17:12:05.272Z,3.3
2022-08-05T17:15:09.998Z,2.2
2022-08-05T17:18:04.807Z,3.1
2022-08-05T17:21:05.365Z,4
2022-08-05T17:24:20.646Z,4
2022-08-05T17:27:04.837Z,2.65
2022-08-05T17:30:07.190Z,2.35
2022-08-05T17:33:09.437Z,2.6
2022-08-05T17:36:32.597Z,2.75
2022-08-05T17:39:05.992Z,2.25
2022-08-05T17:42:18.741Z,2.4
2022-08-05T17:45:17.786Z,2.7
2022-08-05T17:48:04.827Z,2.15
2022-08-05T17:51:09.916Z,2.45
2022-08-05T17:54:04.885Z,3.45
2022-08-05T17:57:12.227Z,2.3
2022-08-05T18:00:06.839Z,2.9
2022-08-05T18:03:08.774Z,2.85
2022-08-05T18:06:05.275Z,1.75
2022-08-05T18:09:04.979Z,2.45
2022-08-05T18:12:04.998Z,3
2022-08-05T18:15:05.638Z,3
2022-08-05T18:18:11.514Z,2.7
2022-08-05T18:21:13.023Z,2.3
2022-08-05T18:24:04.857Z,2.25
2022-08-05T18:27:12.735Z,1.5
2022-08-05T18:30:04.924Z,2.25
2022-08-05T18:33:06.222Z,1.85
2022-08-05T18:36:15.261Z,2.7
2022-08-05T18:39:22.543Z,2.55
2022-08-05T18:42:11.336Z,1.9
2022-08-05T18:45:06.063Z,2.35
2022-08-05T18:48:05.109Z,2.85
2022-08-05T18:52:03.674Z,2.15
2022-08-05T18:54:04.932Z,2.85
2022-08-05T18:57:04.867Z,2.55
2022-08-05T19:00:13.389Z,1.55
2022-08-05T19:03:05.667Z,2.35
2022-08-05T19:06:12.479Z,2.1
2022-08-05T19:09:05.070Z,1.9
2022-08-05T19:12:06.558Z,1.7
2022-08-05T19:15:04.838Z,1.3
2022-08-05T19:18:13.446Z,1.75
2022-08-05T19:21:05.706Z,1.55
2022-08-05T19:24:12.230Z,1.8
2022-08-05T19:27:05.290Z,1
2022-08-05T19:30:04.948Z,1.2
2022-08-05T19:33:07.931Z,1.15
2022-08-05T19:36:07.246Z,0.8
2022-08-05T19:39:05.672Z,0.85
2022-08-05T19:42:09.859Z,1.45
2022-08-05T19:45:07.057Z,1.15
2022-08-05T19:48:06.348Z,1
2022-08-05T19:51:07.183Z,1.45
2022-08-05T19:54:22.894Z,1.65
2022-08-05T19:57:10.147Z,1.45
2022-08-05T20:00:07.498Z,2.6
2022-08-05T20:03:09.904Z,2.5
2022-08-05T20:06:11.922Z,2.75
2022-08-05T20:09:13.618Z,2.8
2022-08-05T20:12:04.977Z,2.1
2022-08-05T20:15:04.959Z,2.05
2022-08-05T20:18:32.997Z,2.3
2022-08-05T20:21:06.502Z,2.5
2022-08-05T20:24:05.013Z,2.1
2022-08-05T20:27:11.060Z,2.5
2022-08-05T20:30:05.394Z,3.45
2022-08-05T20:33:04.983Z,2.25
2022-08-05T20:36:05.016Z,2.3
2022-08-05T20:39:07.007Z,2.15
2022-08-05T20:42:05.857Z,1.8
2022-08-05T20:45:06.052Z,2.4
2022-08-05T20:48:05.210Z,2.45
2022-08-05T20:51:09.218Z,1.9
2022-08-05T20:54:05.350Z,2.15
2022-08-05T20:57:05.611Z,2.2
2022-08-05T21:00:10.790Z,4.7
2022-08-05T21:03:07.892Z,2.9
2022-08-05T21:06:28.041Z,3.1
2022-08-05T21:09:06.349Z,3.4
2022-08-05T21:12:11.631Z,3.45
2022-08-05T21:15:07.869Z,2.65
2022-08-05T21:18:05.093Z,5.35
2022-08-05T21:21:05.388Z,3.5
2022-08-05T21:24:05.474Z,3
2022-08-05T21:27:08.027Z,2.35
2022-08-05T21:30:05.059Z,1.8
2022-08-05T21:33:11.243Z,2.6
2022-08-05T21:36:04.985Z,3.1
2022-08-05T21:39:05.246Z,2.55
2022-08-05T21:42:05.034Z,1.95
2022-08-05T21:45:05.030Z,2.05
2022-08-05T21:48:08.889Z,1.85
2022-08-05T21:51:25.457Z,1.95
2022-08-05T21:54:05.118Z,2
2022-08-05T21:57:30.108Z,1.9
2022-08-05T22:00:11.005Z,1.2
2022-08-05T22:03:05.440Z,2.65
2022-08-05T22:06:05.992Z,1.3
2022-08-05T22:09:13.534Z,2.25
2022-08-05T22:12:10.641Z,1.8
2022-08-05T22:15:05.049Z,2.55
2022-08-05T22:18:05.074Z,1.5
2022-08-05T22:21:18.670Z,1
2022-08-05T22:24:12.831Z,0.65
2022-08-05T22:27:10.774Z,0.9
2022-08-05T22:30:05.166Z,1
2022-08-05T22:33:15.329Z,1.15
2022-08-05T22:36:06.899Z,0.85
2022-08-05T22:39:10.306Z,0.3
2022-08-05T22:42:13.121Z,1.2
2022-08-05T22:45:05.495Z,1.45
2022-08-05T22:48:08.629Z,1.4
2022-08-05T22:51:07.759Z,0.95
2022-08-05T22:54:05.128Z,0.85
2022-08-05T22:57:05.618Z,1.05
2022-08-05T23:00:05.083Z,1.25
2022-08-05T23:03:05.610Z,1.1
2022-08-05T23:06:07.230Z,1.2
2022-08-05T23:09:24.746Z,1.25
2022-08-05T23:12:05.146Z,1
2022-08-05T23:15:10.075Z,0.65
2022-08-05T23:18:11.559Z,0.95
2022-08-05T23:21:05.121Z,0.75
2022-08-05T23:24:11.229Z,0.95
2022-08-05T23:27:05.104Z,1.25
2022-08-05T23:30:10.619Z,0.7
2022-08-05T23:33:05.144Z,0.9
2022-08-05T23:36:05.345Z,0.6
2022-08-05T23:39:05.228Z,0.6
2022-08-05T23:42:14.378Z,0.5
2022-08-05T23:45:13.740Z,1.05
2022-08-05T23:48:05.398Z,0.65
2022-08-05T23:51:05.139Z,0.85
2022-08-05T23:54:05.180Z,0.4
2022-08-05T23:57:05.908Z,0.6
